sensor_id;sensor_type;location;lat;lon;timestamp;P1;durP1;ratioP1;P2;durP2;ratioP2
49384;SDS011;36795;45.028;38.968;2023-02-23T00:01:14;31.30;;;12.60;;
49384;SDS011;36795;45.028;38.968;2023-02-23T00:06:47;29.83;;;12.50;;
49384;SDS011;36795;45.028;38.968;2023-02-23T00:09:36;29.48;;;12.65;;
49384;SDS011;36795;45.028;38.968;2023-02-23T00:12:22;31.12;;;13.38;;
49384;SDS011;36795;45.028;38.968;2023-02-23T00:15:11;29.42;;;12.63;;
49384;SDS011;36795;45.028;38.968;2023-02-23T00:17:57;28.12;;;11.90;;
49384;SDS011;36795;45.028;38.968;2023-02-23T00:20:43;27.30;;;11.23;;
49384;SDS011;36795;45.028;38.968;2023-02-23T00:23:32;25.67;;;11.25;;
49384;SDS011;36795;45.028;38.968;2023-02-23T00:26:19;28.62;;;11.30;;
49384;SDS011;36795;45.028;38.968;2023-02-23T00:29:11;26.58;;;10.50;;
49384;SDS011;36795;45.028;38.968;2023-02-23T00:32:00;28.17;;;10.60;;
49384;SDS011;36795;45.028;38.968;2023-02-23T00:34:47;26.23;;;10.40;;
49384;SDS011;36795;45.028;38.968;2023-02-23T00:37:34;25.58;;;9.07;;
49384;SDS011;36795;45.028;38.968;2023-02-23T00:40:21;24.85;;;9.07;;
49384;SDS011;36795;45.028;38.968;2023-02-23T00:43:08;26.30;;;9.77;;
49384;SDS011;36795;45.028;38.968;2023-02-23T00:45:54;26.65;;;10.32;;
49384;SDS011;36795;45.028;38.968;2023-02-23T00:48:41;25.37;;;9.52;;
49384;SDS011;36795;45.028;38.968;2023-02-23T00:51:27;26.15;;;9.95;;
49384;SDS011;36795;45.028;38.968;2023-02-23T00:54:15;25.15;;;9.60;;
49384;SDS011;36795;45.028;38.968;2023-02-23T00:57:02;24.73;;;9.27;;
49384;SDS011;36795;45.028;38.968;2023-02-23T00:59:48;24.40;;;9.48;;
49384;SDS011;36795;45.028;38.968;2023-02-23T01:02:34;23.95;;;10.07;;
49384;SDS011;36795;45.028;38.968;2023-02-23T01:05:21;27.15;;;9.95;;
49384;SDS011;36795;45.028;38.968;2023-02-23T01:08:07;25.30;;;9.55;;
49384;SDS011;36795;45.028;38.968;2023-02-23T01:10:55;24.17;;;9.35;;
49384;SDS011;36795;45.028;38.968;2023-02-23T01:13:42;27.62;;;9.60;;
49384;SDS011;36795;45.028;38.968;2023-02-23T01:16:30;24.63;;;9.23;;
49384;SDS011;36795;45.028;38.968;2023-02-23T01:19:16;25.17;;;9.80;;
49384;SDS011;36795;45.028;38.968;2023-02-23T01:22:03;24.77;;;9.68;;
49384;SDS011;36795;45.028;38.968;2023-02-23T01:24:48;25.27;;;9.73;;
49384;SDS011;36795;45.028;38.968;2023-02-23T01:27:35;23.33;;;8.55;;
49384;SDS011;36795;45.028;38.968;2023-02-23T01:30:21;23.08;;;8.40;;
49384;SDS011;36795;45.028;38.968;2023-02-23T01:33:08;22.02;;;8.25;;
49384;SDS011;36795;45.028;38.968;2023-02-23T01:35:59;26.90;;;9.30;;
49384;SDS011;36795;45.028;38.968;2023-02-23T01:38:46;24.83;;;9.48;;
49384;SDS011;36795;45.028;38.968;2023-02-23T01:41:34;23.65;;;9.27;;
49384;SDS011;36795;45.028;38.968;2023-02-23T01:47:07;22.67;;;8.23;;
49384;SDS011;36795;45.028;38.968;2023-02-23T01:49:53;23.08;;;8.27;;
49384;SDS011;36795;45.028;38.968;2023-02-23T01:52:39;21.90;;;8.02;;
49384;SDS011;36795;45.028;38.968;2023-02-23T01:55:26;23.00;;;8.13;;
49384;SDS011;36795;45.028;38.968;2023-02-23T01:58:14;23.42;;;8.25;;
49384;SDS011;36795;45.028;38.968;2023-02-23T02:01:04;23.20;;;8.38;;
49384;SDS011;36795;45.028;38.968;2023-02-23T02:03:52;21.70;;;8.02;;
49384;SDS011;36795;45.028;38.968;2023-02-23T02:06:39;24.08;;;8.38;;
49384;SDS011;36795;45.028;38.968;2023-02-23T02:09:26;23.98;;;8.85;;
49384;SDS011;36795;45.028;38.968;2023-02-23T02:12:12;25.45;;;9.60;;
49384;SDS011;36795;45.028;38.968;2023-02-23T02:15:01;25.65;;;9.38;;
49384;SDS011;36795;45.028;38.968;2023-02-23T02:17:55;24.37;;;9.77;;
49384;SDS011;36795;45.028;38.968;2023-02-23T02:27:12;25.00;;;9.73;;
49384;SDS011;36795;45.028;38.968;2023-02-23T02:33:02;27.05;;;9.95;;
49384;SDS011;36795;45.028;38.968;2023-02-23T02:39:05;23.50;;;8.43;;
49384;SDS011;36795;45.028;38.968;2023-02-23T02:44:56;23.83;;;8.80;;
49384;SDS011;36795;45.028;38.968;2023-02-23T02:47:46;26.85;;;10.05;;
49384;SDS011;36795;45.028;38.968;2023-02-23T02:53:50;27.27;;;9.25;;
49384;SDS011;36795;45.028;38.968;2023-02-23T02:56:39;24.12;;;9.38;;
49384;SDS011;36795;45.028;38.968;2023-02-23T02:59:26;24.60;;;9.10;;
49384;SDS011;36795;45.028;38.968;2023-02-23T03:02:32;27.95;;;10.23;;
49384;SDS011;36795;45.028;38.968;2023-02-23T03:05:47;24.75;;;9.75;;
49384;SDS011;36795;45.028;38.968;2023-02-23T03:08:54;34.95;;;10.90;;
49384;SDS011;36795;45.028;38.968;2023-02-23T03:12:05;25.73;;;10.02;;
49384;SDS011;36795;45.028;38.968;2023-02-23T03:18:32;28.98;;;11.00;;
49384;SDS011;36795;45.028;38.968;2023-02-23T03:21:49;30.12;;;12.82;;
49384;SDS011;36795;45.028;38.968;2023-02-23T03:24:59;30.02;;;12.43;;
49384;SDS011;36795;45.028;38.968;2023-02-23T03:31:18;32.00;;;15.23;;
49384;SDS011;36795;45.028;38.968;2023-02-23T03:34:36;31.12;;;14.18;;
49384;SDS011;36795;45.028;38.968;2023-02-23T03:38:30;50.33;;;16.55;;
49384;SDS011;36795;45.028;38.968;2023-02-23T03:41:09;32.92;;;14.55;;
49384;SDS011;36795;45.028;38.968;2023-02-23T03:44:23;31.52;;;14.35;;
49384;SDS011;36795;45.028;38.968;2023-02-23T03:47:32;33.25;;;13.32;;
49384;SDS011;36795;45.028;38.968;2023-02-23T03:51:00;33.30;;;14.10;;
49384;SDS011;36795;45.028;38.968;2023-02-23T03:55:06;38.13;;;15.05;;
49384;SDS011;36795;45.028;38.968;2023-02-23T03:57:37;38.35;;;15.95;;
49384;SDS011;36795;45.028;38.968;2023-02-23T04:00:45;37.40;;;16.75;;
49384;SDS011;36795;45.028;38.968;2023-02-23T04:03:51;38.88;;;17.48;;
49384;SDS011;36795;45.028;38.968;2023-02-23T04:06:58;57.90;;;19.77;;
49384;SDS011;36795;45.028;38.968;2023-02-23T04:10:04;47.28;;;20.35;;
49384;SDS011;36795;45.028;38.968;2023-02-23T04:13:13;44.03;;;18.77;;
49384;SDS011;36795;45.028;38.968;2023-02-23T04:16:04;41.42;;;18.65;;
49384;SDS011;36795;45.028;38.968;2023-02-23T04:18:50;39.80;;;18.67;;
49384;SDS011;36795;45.028;38.968;2023-02-23T04:21:36;40.70;;;18.37;;
49384;SDS011;36795;45.028;38.968;2023-02-23T04:24:23;41.78;;;18.70;;
49384;SDS011;36795;45.028;38.968;2023-02-23T04:27:09;40.03;;;18.00;;
49384;SDS011;36795;45.028;38.968;2023-02-23T04:29:55;39.10;;;16.55;;
49384;SDS011;36795;45.028;38.968;2023-02-23T04:32:41;40.10;;;17.33;;
49384;SDS011;36795;45.028;38.968;2023-02-23T04:35:29;39.75;;;16.17;;
49384;SDS011;36795;45.028;38.968;2023-02-23T04:38:15;37.95;;;16.92;;
49384;SDS011;36795;45.028;38.968;2023-02-23T04:41:02;38.50;;;17.87;;
49384;SDS011;36795;45.028;38.968;2023-02-23T04:43:48;48.95;;;16.85;;
49384;SDS011;36795;45.028;38.968;2023-02-23T04:46:34;35.65;;;13.88;;
49384;SDS011;36795;45.028;38.968;2023-02-23T04:49:22;36.00;;;14.73;;
49384;SDS011;36795;45.028;38.968;2023-02-23T04:52:08;33.78;;;14.00;;
49384;SDS011;36795;45.028;38.968;2023-02-23T04:54:54;43.28;;;20.12;;
49384;SDS011;36795;45.028;38.968;2023-02-23T04:57:40;50.72;;;15.50;;
49384;SDS011;36795;45.028;38.968;2023-02-23T05:00:27;34.70;;;14.80;;
49384;SDS011;36795;45.028;38.968;2023-02-23T05:03:13;34.13;;;13.70;;
49384;SDS011;36795;45.028;38.968;2023-02-23T05:06:01;33.55;;;14.23;;
49384;SDS011;36795;45.028;38.968;2023-02-23T05:08:47;32.47;;;12.73;;
49384;SDS011;36795;45.028;38.968;2023-02-23T05:11:34;34.65;;;13.70;;
49384;SDS011;36795;45.028;38.968;2023-02-23T05:14:21;33.03;;;12.43;;
49384;SDS011;36795;45.028;38.968;2023-02-23T05:17:07;35.20;;;11.60;;
49384;SDS011;36795;45.028;38.968;2023-02-23T05:19:53;30.42;;;11.48;;
49384;SDS011;36795;45.028;38.968;2023-02-23T05:22:40;28.70;;;11.77;;
49384;SDS011;36795;45.028;38.968;2023-02-23T05:25:26;28.73;;;11.27;;
49384;SDS011;36795;45.028;38.968;2023-02-23T05:28:13;29.87;;;10.85;;
49384;SDS011;36795;45.028;38.968;2023-02-23T05:30:59;29.60;;;11.38;;
49384;SDS011;36795;45.028;38.968;2023-02-23T05:33:47;28.80;;;11.45;;
49384;SDS011;36795;45.028;38.968;2023-02-23T05:36:33;28.83;;;11.02;;
49384;SDS011;36795;45.028;38.968;2023-02-23T05:39:21;29.58;;;11.95;;
49384;SDS011;36795;45.028;38.968;2023-02-23T05:42:07;31.92;;;12.88;;
49384;SDS011;36795;45.028;38.968;2023-02-23T05:44:54;30.58;;;12.15;;
49384;SDS011;36795;45.028;38.968;2023-02-23T05:47:40;39.13;;;12.65;;
49384;SDS011;36795;45.028;38.968;2023-02-23T05:50:26;31.48;;;12.75;;
49384;SDS011;36795;45.028;38.968;2023-02-23T05:53:12;34.30;;;12.35;;
49384;SDS011;36795;45.028;38.968;2023-02-23T05:55:59;56.47;;;13.62;;
49384;SDS011;36795;45.028;38.968;2023-02-23T05:58:53;33.17;;;11.73;;
49384;SDS011;36795;45.028;38.968;2023-02-23T06:01:40;28.20;;;11.18;;
49384;SDS011;36795;45.028;38.968;2023-02-23T06:04:27;31.02;;;10.27;;
49384;SDS011;36795;45.028;38.968;2023-02-23T06:07:13;30.45;;;12.37;;
49384;SDS011;36795;45.028;38.968;2023-02-23T06:10:00;27.62;;;10.23;;
49384;SDS011;36795;45.028;38.968;2023-02-23T06:12:46;36.75;;;12.35;;
49384;SDS011;36795;45.028;38.968;2023-02-23T06:15:33;32.08;;;12.85;;
49384;SDS011;36795;45.028;38.968;2023-02-23T06:18:19;29.63;;;10.95;;
49384;SDS011;36795;45.028;38.968;2023-02-23T06:21:06;36.10;;;12.77;;
49384;SDS011;36795;45.028;38.968;2023-02-23T06:23:52;32.38;;;11.68;;
49384;SDS011;36795;45.028;38.968;2023-02-23T06:26:39;32.85;;;14.07;;
49384;SDS011;36795;45.028;38.968;2023-02-23T06:29:25;32.92;;;12.82;;
49384;SDS011;36795;45.028;38.968;2023-02-23T06:32:11;47.95;;;27.42;;
49384;SDS011;36795;45.028;38.968;2023-02-23T06:35:02;35.45;;;15.10;;
49384;SDS011;36795;45.028;38.968;2023-02-23T06:37:50;30.45;;;12.90;;
49384;SDS011;36795;45.028;38.968;2023-02-23T06:40:36;36.10;;;14.75;;
49384;SDS011;36795;45.028;38.968;2023-02-23T06:43:23;33.83;;;14.20;;
49384;SDS011;36795;45.028;38.968;2023-02-23T06:46:09;34.03;;;15.18;;
49384;SDS011;36795;45.028;38.968;2023-02-23T06:48:56;30.90;;;12.48;;
49384;SDS011;36795;45.028;38.968;2023-02-23T06:51:43;35.92;;;15.40;;
49384;SDS011;36795;45.028;38.968;2023-02-23T06:54:30;33.75;;;15.35;;
49384;SDS011;36795;45.028;38.968;2023-02-23T06:57:17;32.83;;;13.50;;
49384;SDS011;36795;45.028;38.968;2023-02-23T07:00:04;31.40;;;13.10;;
49384;SDS011;36795;45.028;38.968;2023-02-23T07:02:50;31.90;;;13.88;;
49384;SDS011;36795;45.028;38.968;2023-02-23T07:05:37;31.20;;;11.90;;
49384;SDS011;36795;45.028;38.968;2023-02-23T07:08:23;36.75;;;13.75;;
49384;SDS011;36795;45.028;38.968;2023-02-23T07:11:11;32.65;;;13.20;;
49384;SDS011;36795;45.028;38.968;2023-02-23T07:13:58;32.58;;;13.95;;
49384;SDS011;36795;45.028;38.968;2023-02-23T07:16:45;30.83;;;12.45;;
49384;SDS011;36795;45.028;38.968;2023-02-23T07:19:31;32.53;;;13.90;;
49384;SDS011;36795;45.028;38.968;2023-02-23T07:22:18;32.08;;;13.68;;
49384;SDS011;36795;45.028;38.968;2023-02-23T07:25:04;32.05;;;12.30;;
49384;SDS011;36795;45.028;38.968;2023-02-23T07:27:51;31.15;;;12.35;;
49384;SDS011;36795;45.028;38.968;2023-02-23T07:30:40;32.30;;;12.68;;
49384;SDS011;36795;45.028;38.968;2023-02-23T07:33:27;32.70;;;13.20;;
49384;SDS011;36795;45.028;38.968;2023-02-23T07:36:13;29.85;;;12.75;;
49384;SDS011;36795;45.028;38.968;2023-02-23T07:39:00;32.85;;;12.45;;
49384;SDS011;36795;45.028;38.968;2023-02-23T07:41:46;31.55;;;13.05;;
49384;SDS011;36795;45.028;38.968;2023-02-23T07:44:37;35.53;;;15.05;;
49384;SDS011;36795;45.028;38.968;2023-02-23T07:47:23;44.70;;;20.48;;
49384;SDS011;36795;45.028;38.968;2023-02-23T07:50:15;52.65;;;21.42;;
49384;SDS011;36795;45.028;38.968;2023-02-23T07:53:02;46.33;;;22.40;;
49384;SDS011;36795;45.028;38.968;2023-02-23T07:55:57;47.40;;;20.48;;
49384;SDS011;36795;45.028;38.968;2023-02-23T07:58:43;51.15;;;24.23;;
49384;SDS011;36795;45.028;38.968;2023-02-23T08:01:30;43.97;;;20.33;;
49384;SDS011;36795;45.028;38.968;2023-02-23T08:04:17;36.95;;;16.77;;
49384;SDS011;36795;45.028;38.968;2023-02-23T08:07:03;34.35;;;15.68;;
49384;SDS011;36795;45.028;38.968;2023-02-23T08:09:49;43.10;;;20.90;;
49384;SDS011;36795;45.028;38.968;2023-02-23T08:12:35;51.60;;;24.80;;
49384;SDS011;36795;45.028;38.968;2023-02-23T08:15:22;45.20;;;23.33;;
49384;SDS011;36795;45.028;38.968;2023-02-23T08:18:08;28.83;;;12.70;;
49384;SDS011;36795;45.028;38.968;2023-02-23T08:21:03;42.00;;;14.30;;
49384;SDS011;36795;45.028;38.968;2023-02-23T08:23:49;37.40;;;12.35;;
49384;SDS011;36795;45.028;38.968;2023-02-23T08:26:35;32.50;;;14.10;;
49384;SDS011;36795;45.028;38.968;2023-02-23T08:29:24;30.77;;;13.52;;
49384;SDS011;36795;45.028;38.968;2023-02-23T08:32:11;36.33;;;14.27;;
49384;SDS011;36795;45.028;38.968;2023-02-23T08:34:57;37.40;;;13.73;;
49384;SDS011;36795;45.028;38.968;2023-02-23T08:37:45;32.85;;;12.50;;
49384;SDS011;36795;45.028;38.968;2023-02-23T08:40:31;31.98;;;11.45;;
49384;SDS011;36795;45.028;38.968;2023-02-23T08:43:17;41.08;;;16.08;;
49384;SDS011;36795;45.028;38.968;2023-02-23T08:46:04;36.42;;;14.95;;
49384;SDS011;36795;45.028;38.968;2023-02-23T08:48:50;32.30;;;13.35;;
49384;SDS011;36795;45.028;38.968;2023-02-23T08:51:37;34.72;;;14.00;;
49384;SDS011;36795;45.028;38.968;2023-02-23T08:54:25;34.45;;;15.45;;
49384;SDS011;36795;45.028;38.968;2023-02-23T08:57:12;29.75;;;13.50;;
49384;SDS011;36795;45.028;38.968;2023-02-23T08:59:58;33.28;;;13.70;;
49384;SDS011;36795;45.028;38.968;2023-02-23T09:02:45;30.30;;;13.05;;
49384;SDS011;36795;45.028;38.968;2023-02-23T09:05:35;32.72;;;13.70;;
49384;SDS011;36795;45.028;38.968;2023-02-23T09:08:22;37.22;;;17.90;;
49384;SDS011;36795;45.028;38.968;2023-02-23T09:11:09;31.42;;;12.80;;
49384;SDS011;36795;45.028;38.968;2023-02-23T09:13:56;29.83;;;13.27;;
49384;SDS011;36795;45.028;38.968;2023-02-23T09:16:42;32.38;;;14.55;;
49384;SDS011;36795;45.028;38.968;2023-02-23T09:19:28;30.77;;;11.25;;
49384;SDS011;36795;45.028;38.968;2023-02-23T09:22:15;30.45;;;11.52;;
49384;SDS011;36795;45.028;38.968;2023-02-23T09:25:02;32.42;;;12.48;;
49384;SDS011;36795;45.028;38.968;2023-02-23T09:27:50;35.17;;;13.05;;
49384;SDS011;36795;45.028;38.968;2023-02-23T09:30:37;37.92;;;14.45;;
49384;SDS011;36795;45.028;38.968;2023-02-23T09:33:23;30.95;;;12.85;;
49384;SDS011;36795;45.028;38.968;2023-02-23T09:36:18;30.37;;;12.23;;
49384;SDS011;36795;45.028;38.968;2023-02-23T09:39:04;40.87;;;15.33;;
49384;SDS011;36795;45.028;38.968;2023-02-23T09:44:42;34.60;;;12.70;;
49384;SDS011;36795;45.028;38.968;2023-02-23T09:47:34;48.55;;;22.65;;
49384;SDS011;36795;45.028;38.968;2023-02-23T09:50:25;37.65;;;14.90;;
49384;SDS011;36795;45.028;38.968;2023-02-23T09:56:03;58.90;;;15.68;;
49384;SDS011;36795;45.028;38.968;2023-02-23T09:58:50;35.22;;;13.70;;
49384;SDS011;36795;45.028;38.968;2023-02-23T10:01:40;35.55;;;14.73;;
49384;SDS011;36795;45.028;38.968;2023-02-23T10:10:20;32.95;;;14.20;;
49384;SDS011;36795;45.028;38.968;2023-02-23T10:13:28;29.00;;;12.32;;
49384;SDS011;36795;45.028;38.968;2023-02-23T10:19:05;30.15;;;12.15;;
49384;SDS011;36795;45.028;38.968;2023-02-23T10:21:56;30.50;;;12.55;;
49384;SDS011;36795;45.028;38.968;2023-02-23T10:24:44;29.60;;;11.27;;
49384;SDS011;36795;45.028;38.968;2023-02-23T10:27:35;26.67;;;11.60;;
49384;SDS011;36795;45.028;38.968;2023-02-23T10:33:12;29.65;;;12.68;;
49384;SDS011;36795;45.028;38.968;2023-02-23T10:36:11;28.48;;;12.10;;
49384;SDS011;36795;45.028;38.968;2023-02-23T10:38:58;34.17;;;13.43;;
49384;SDS011;36795;45.028;38.968;2023-02-23T10:41:44;36.42;;;12.50;;
49384;SDS011;36795;45.028;38.968;2023-02-23T10:44:30;29.05;;;12.02;;
49384;SDS011;36795;45.028;38.968;2023-02-23T10:47:18;33.20;;;15.35;;
49384;SDS011;36795;45.028;38.968;2023-02-23T10:50:06;44.08;;;19.98;;
49384;SDS011;36795;45.028;38.968;2023-02-23T10:53:17;40.05;;;15.23;;
49384;SDS011;36795;45.028;38.968;2023-02-23T10:56:04;31.50;;;13.45;;
49384;SDS011;36795;45.028;38.968;2023-02-23T10:58:54;35.42;;;15.50;;
49384;SDS011;36795;45.028;38.968;2023-02-23T11:01:41;47.47;;;15.70;;
49384;SDS011;36795;45.028;38.968;2023-02-23T11:04:31;35.33;;;13.75;;
49384;SDS011;36795;45.028;38.968;2023-02-23T11:07:24;34.72;;;15.52;;
49384;SDS011;36795;45.028;38.968;2023-02-23T11:10:26;53.30;;;21.73;;
49384;SDS011;36795;45.028;38.968;2023-02-23T11:13:22;41.63;;;17.67;;
49384;SDS011;36795;45.028;38.968;2023-02-23T11:16:11;32.63;;;14.57;;
49384;SDS011;36795;45.028;38.968;2023-02-23T11:18:59;38.78;;;15.20;;
49384;SDS011;36795;45.028;38.968;2023-02-23T11:21:48;30.50;;;11.70;;
49384;SDS011;36795;45.028;38.968;2023-02-23T11:24:36;34.53;;;13.27;;
49384;SDS011;36795;45.028;38.968;2023-02-23T11:27:25;41.20;;;14.45;;
49384;SDS011;36795;45.028;38.968;2023-02-23T11:30:12;35.47;;;13.10;;
49384;SDS011;36795;45.028;38.968;2023-02-23T11:32:59;31.95;;;12.27;;
49384;SDS011;36795;45.028;38.968;2023-02-23T11:35:59;34.22;;;11.30;;
49384;SDS011;36795;45.028;38.968;2023-02-23T11:38:45;39.58;;;12.68;;
49384;SDS011;36795;45.028;38.968;2023-02-23T11:41:32;27.75;;;11.88;;
49384;SDS011;36795;45.028;38.968;2023-02-23T11:44:20;37.10;;;12.73;;
49384;SDS011;36795;45.028;38.968;2023-02-23T11:47:13;30.85;;;12.30;;
49384;SDS011;36795;45.028;38.968;2023-02-23T11:50:01;26.83;;;10.87;;
49384;SDS011;36795;45.028;38.968;2023-02-23T11:52:54;27.30;;;11.52;;
49384;SDS011;36795;45.028;38.968;2023-02-23T11:55:48;30.08;;;12.23;;
49384;SDS011;36795;45.028;38.968;2023-02-23T11:58:39;26.35;;;10.98;;
49384;SDS011;36795;45.028;38.968;2023-02-23T12:01:36;31.12;;;11.45;;
49384;SDS011;36795;45.028;38.968;2023-02-23T12:13:30;33.60;;;12.93;;
49384;SDS011;36795;45.028;38.968;2023-02-23T12:16:27;29.63;;;13.18;;
49384;SDS011;36795;45.028;38.968;2023-02-23T12:19:23;31.52;;;13.18;;
49384;SDS011;36795;45.028;38.968;2023-02-23T12:25:00;27.58;;;12.73;;
49384;SDS011;36795;45.028;38.968;2023-02-23T12:27:52;28.92;;;11.68;;
49384;SDS011;36795;45.028;38.968;2023-02-23T12:30:42;32.58;;;12.35;;
49384;SDS011;36795;45.028;38.968;2023-02-23T12:33:43;29.42;;;11.95;;
49384;SDS011;36795;45.028;38.968;2023-02-23T12:36:35;27.37;;;11.35;;
49384;SDS011;36795;45.028;38.968;2023-02-23T12:39:30;45.75;;;16.52;;
49384;SDS011;36795;45.028;38.968;2023-02-23T12:42:34;28.80;;;12.82;;
49384;SDS011;36795;45.028;38.968;2023-02-23T12:45:28;31.15;;;13.30;;
49384;SDS011;36795;45.028;38.968;2023-02-23T12:54:08;31.23;;;11.73;;
49384;SDS011;36795;45.028;38.968;2023-02-23T12:57:03;27.62;;;11.10;;
49384;SDS011;36795;45.028;38.968;2023-02-23T13:02:48;33.97;;;11.57;;
49384;SDS011;36795;45.028;38.968;2023-02-23T13:05:54;36.20;;;11.18;;
49384;SDS011;36795;45.028;38.968;2023-02-23T13:08:57;28.27;;;10.02;;
49384;SDS011;36795;45.028;38.968;2023-02-23T13:14:37;25.12;;;10.05;;
49384;SDS011;36795;45.028;38.968;2023-02-23T13:20:19;25.35;;;9.32;;
49384;SDS011;36795;45.028;38.968;2023-02-23T13:23:15;27.33;;;9.88;;
49384;SDS011;36795;45.028;38.968;2023-02-23T13:29:10;22.92;;;8.25;;
49384;SDS011;36795;45.028;38.968;2023-02-23T13:31:58;24.00;;;8.63;;
49384;SDS011;36795;45.028;38.968;2023-02-23T13:34:47;23.83;;;8.50;;
49384;SDS011;36795;45.028;38.968;2023-02-23T13:37:49;25.23;;;8.57;;
49384;SDS011;36795;45.028;38.968;2023-02-23T13:40:45;24.48;;;8.35;;
49384;SDS011;36795;45.028;38.968;2023-02-23T13:46:21;29.90;;;8.18;;
49384;SDS011;36795;45.028;38.968;2023-02-23T13:52:01;23.55;;;7.82;;
49384;SDS011;36795;45.028;38.968;2023-02-23T13:54:55;23.85;;;7.20;;
49384;SDS011;36795;45.028;38.968;2023-02-23T13:57:47;28.50;;;8.93;;
49384;SDS011;36795;45.028;38.968;2023-02-23T14:00:33;28.62;;;9.10;;
49384;SDS011;36795;45.028;38.968;2023-02-23T14:03:25;24.67;;;8.45;;
49384;SDS011;36795;45.028;38.968;2023-02-23T14:06:16;21.80;;;7.90;;
49384;SDS011;36795;45.028;38.968;2023-02-23T14:09:10;25.50;;;9.15;;
49384;SDS011;36795;45.028;38.968;2023-02-23T14:12:01;30.57;;;10.20;;
49384;SDS011;36795;45.028;38.968;2023-02-23T14:14:48;28.60;;;8.50;;
49384;SDS011;36795;45.028;38.968;2023-02-23T14:23:27;28.60;;;9.52;;
49384;SDS011;36795;45.028;38.968;2023-02-23T14:26:34;23.77;;;9.07;;
49384;SDS011;36795;45.028;38.968;2023-02-23T14:29:21;30.35;;;10.73;;
49384;SDS011;36795;45.028;38.968;2023-02-23T14:34:57;28.30;;;10.07;;
49384;SDS011;36795;45.028;38.968;2023-02-23T14:37:48;29.52;;;9.27;;
49384;SDS011;36795;45.028;38.968;2023-02-23T14:40:40;27.85;;;9.65;;
49384;SDS011;36795;45.028;38.968;2023-02-23T14:43:38;29.33;;;11.10;;
49384;SDS011;36795;45.028;38.968;2023-02-23T14:46:26;32.72;;;11.20;;
49384;SDS011;36795;45.028;38.968;2023-02-23T14:49:14;23.50;;;9.10;;
49384;SDS011;36795;45.028;38.968;2023-02-23T14:52:04;28.67;;;9.60;;
49384;SDS011;36795;45.028;38.968;2023-02-23T14:54:52;26.45;;;8.93;;
49384;SDS011;36795;45.028;38.968;2023-02-23T14:57:49;29.58;;;9.10;;
49384;SDS011;36795;45.028;38.968;2023-02-23T15:00:40;29.17;;;10.00;;
49384;SDS011;36795;45.028;38.968;2023-02-23T15:03:26;31.10;;;11.48;;
49384;SDS011;36795;45.028;38.968;2023-02-23T15:06:12;25.90;;;9.45;;
49384;SDS011;36795;45.028;38.968;2023-02-23T15:08:58;33.67;;;10.43;;
49384;SDS011;36795;45.028;38.968;2023-02-23T15:11:47;26.25;;;10.05;;
49384;SDS011;36795;45.028;38.968;2023-02-23T15:14:35;26.27;;;8.63;;
49384;SDS011;36795;45.028;38.968;2023-02-23T15:17:23;28.42;;;9.35;;
49384;SDS011;36795;45.028;38.968;2023-02-23T15:20:17;37.22;;;13.80;;
49384;SDS011;36795;45.028;38.968;2023-02-23T15:23:08;34.17;;;10.30;;
49384;SDS011;36795;45.028;38.968;2023-02-23T15:25:56;26.35;;;9.18;;
49384;SDS011;36795;45.028;38.968;2023-02-23T15:28:44;25.30;;;8.70;;
49384;SDS011;36795;45.028;38.968;2023-02-23T15:31:30;30.55;;;9.68;;
49384;SDS011;36795;45.028;38.968;2023-02-23T15:34:18;27.75;;;8.52;;
49384;SDS011;36795;45.028;38.968;2023-02-23T15:37:50;36.45;;;10.57;;
49384;SDS011;36795;45.028;38.968;2023-02-23T15:40:15;27.95;;;9.32;;
49384;SDS011;36795;45.028;38.968;2023-02-23T15:43:02;25.27;;;9.07;;
49384;SDS011;36795;45.028;38.968;2023-02-23T15:45:49;31.55;;;9.77;;
49384;SDS011;36795;45.028;38.968;2023-02-23T15:48:40;28.15;;;9.43;;
49384;SDS011;36795;45.028;38.968;2023-02-23T15:51:34;32.08;;;10.48;;
49384;SDS011;36795;45.028;38.968;2023-02-23T15:54:31;27.58;;;9.60;;
49384;SDS011;36795;45.028;38.968;2023-02-23T15:57:21;27.23;;;10.27;;
49384;SDS011;36795;45.028;38.968;2023-02-23T16:00:14;26.58;;;8.93;;
49384;SDS011;36795;45.028;38.968;2023-02-23T16:03:04;26.52;;;9.45;;
49384;SDS011;36795;45.028;38.968;2023-02-23T16:06:01;28.30;;;9.57;;
49384;SDS011;36795;45.028;38.968;2023-02-23T16:09:10;35.75;;;10.60;;
49384;SDS011;36795;45.028;38.968;2023-02-23T16:12:11;31.48;;;10.27;;
49384;SDS011;36795;45.028;38.968;2023-02-23T16:14:59;32.30;;;10.93;;
49384;SDS011;36795;45.028;38.968;2023-02-23T16:17:46;28.38;;;10.38;;
49384;SDS011;36795;45.028;38.968;2023-02-23T16:20:40;31.52;;;10.10;;
49384;SDS011;36795;45.028;38.968;2023-02-23T16:26:28;28.08;;;10.38;;
49384;SDS011;36795;45.028;38.968;2023-02-23T16:29:17;32.83;;;12.43;;
49384;SDS011;36795;45.028;38.968;2023-02-23T16:32:08;32.15;;;11.30;;
49384;SDS011;36795;45.028;38.968;2023-02-23T16:34:58;36.45;;;11.77;;
49384;SDS011;36795;45.028;38.968;2023-02-23T16:37:55;34.03;;;11.15;;
49384;SDS011;36795;45.028;38.968;2023-02-23T16:40:42;27.52;;;10.07;;
49384;SDS011;36795;45.028;38.968;2023-02-23T16:43:29;28.98;;;9.73;;
49384;SDS011;36795;45.028;38.968;2023-02-23T16:46:19;31.75;;;9.52;;
49384;SDS011;36795;45.028;38.968;2023-02-23T16:49:08;35.47;;;12.50;;
49384;SDS011;36795;45.028;38.968;2023-02-23T16:51:56;34.60;;;11.45;;
49384;SDS011;36795;45.028;38.968;2023-02-23T16:54:43;31.20;;;10.93;;
49384;SDS011;36795;45.028;38.968;2023-02-23T16:57:36;35.83;;;12.00;;
49384;SDS011;36795;45.028;38.968;2023-02-23T17:00:25;31.92;;;12.15;;
49384;SDS011;36795;45.028;38.968;2023-02-23T17:03:22;33.95;;;13.05;;
49384;SDS011;36795;45.028;38.968;2023-02-23T17:06:09;30.95;;;12.73;;
49384;SDS011;36795;45.028;38.968;2023-02-23T17:08:56;40.55;;;13.90;;
49384;SDS011;36795;45.028;38.968;2023-02-23T17:11:42;40.80;;;12.70;;
49384;SDS011;36795;45.028;38.968;2023-02-23T17:14:31;36.13;;;15.80;;
49384;SDS011;36795;45.028;38.968;2023-02-23T17:17:17;77.18;;;17.02;;
49384;SDS011;36795;45.028;38.968;2023-02-23T17:20:05;34.55;;;11.82;;
49384;SDS011;36795;45.028;38.968;2023-02-23T17:23:00;32.88;;;12.68;;
49384;SDS011;36795;45.028;38.968;2023-02-23T17:25:46;41.47;;;16.20;;
49384;SDS011;36795;45.028;38.968;2023-02-23T17:28:32;41.97;;;15.50;;
49384;SDS011;36795;45.028;38.968;2023-02-23T17:31:19;39.90;;;15.75;;
49384;SDS011;36795;45.028;38.968;2023-02-23T17:34:05;36.10;;;13.68;;
49384;SDS011;36795;45.028;38.968;2023-02-23T17:36:51;30.85;;;13.82;;
49384;SDS011;36795;45.028;38.968;2023-02-23T17:39:38;62.40;;;26.42;;
49384;SDS011;36795;45.028;38.968;2023-02-23T17:42:27;31.90;;;12.43;;
49384;SDS011;36795;45.028;38.968;2023-02-23T17:45:18;33.15;;;13.43;;
49384;SDS011;36795;45.028;38.968;2023-02-23T17:48:03;37.50;;;14.32;;
49384;SDS011;36795;45.028;38.968;2023-02-23T17:51:00;37.30;;;14.10;;
49384;SDS011;36795;45.028;38.968;2023-02-23T17:53:46;42.72;;;14.93;;
49384;SDS011;36795;45.028;38.968;2023-02-23T17:56:32;32.42;;;13.77;;
49384;SDS011;36795;45.028;38.968;2023-02-23T17:59:19;34.33;;;12.40;;